sensor_id;sensor_type;location;lat;lon;timestamp;pressure;altitude;pressure_sealevel;temperature;humidity
4410;BME280;2218;51.408;7.208;2022-11-02T00:01:29;99782.19;;;20.69;45.19
4410;BME280;2218;51.408;7.208;2022-11-02T00:04:00;99776.97;;;20.67;45.16
4410;BME280;2218;51.408;7.208;2022-11-02T00:06:27;99774.34;;;20.67;45.22
4410;BME280;2218;51.408;7.208;2022-11-02T00:08:55;99763.78;;;20.67;45.18
4410;BME280;2218;51.408;7.208;2022-11-02T00:11:22;99758.50;;;20.67;45.24
4410;BME280;2218;51.408;7.208;2022-11-02T00:13:49;99757.66;;;20.67;45.38
4410;BME280;2218;51.408;7.208;2022-11-02T00:16:19;99764.75;;;20.66;45.22
4410;BME280;2218;51.408;7.208;2022-11-02T00:18:52;99768.22;;;20.67;45.19
4410;BME280;2218;51.408;7.208;2022-11-02T00:21:22;99761.25;;;20.65;45.30
4410;BME280;2218;51.408;7.208;2022-11-02T00:23:52;99755.97;;;20.65;45.68
4410;BME280;2218;51.408;7.208;2022-11-02T00:26:20;99749.03;;;20.64;45.34
4410;BME280;2218;51.408;7.208;2022-11-02T00:28:48;99761.25;;;20.65;45.20
4410;BME280;2218;51.408;7.208;2022-11-02T00:31:15;99752.50;;;20.65;45.36
4410;BME280;2218;51.408;7.208;2022-11-02T00:33:42;99755.16;;;20.65;45.17
4410;BME280;2218;51.408;7.208;2022-11-02T00:36:08;99749.88;;;20.65;45.21
4410;BME280;2218;51.408;7.208;2022-11-02T00:38:35;99750.81;;;20.64;45.28
4410;BME280;2218;51.408;7.208;2022-11-02T00:41:02;99758.75;;;20.64;45.08
4410;BME280;2218;51.408;7.208;2022-11-02T00:43:31;99760.50;;;20.63;45.30
4410;BME280;2218;51.408;7.208;2022-11-02T00:45:58;99758.75;;;20.64;45.59
4410;BME280;2218;51.408;7.208;2022-11-02T00:48:26;99756.19;;;20.62;44.99
4410;BME280;2218;51.408;7.208;2022-11-02T00:50:53;99757.03;;;20.63;45.18
4410;BME280;2218;51.408;7.208;2022-11-02T00:53:22;99757.03;;;20.63;45.42
4410;BME280;2218;51.408;7.208;2022-11-02T00:55:51;99752.72;;;20.62;45.33
4410;BME280;2218;51.408;7.208;2022-11-02T00:58:19;99751.75;;;20.63;45.52
4410;BME280;2218;51.408;7.208;2022-11-02T01:00:50;99755.34;;;20.62;45.28
4410;BME280;2218;51.408;7.208;2022-11-02T01:03:16;99744.78;;;20.62;45.40
4410;BME280;2218;51.408;7.208;2022-11-02T01:05:43;99750.91;;;20.62;45.39
4410;BME280;2218;51.408;7.208;2022-11-02T01:08:10;99746.59;;;20.61;45.30
4410;BME280;2218;51.408;7.208;2022-11-02T01:10:37;99753.56;;;20.62;45.03
4410;BME280;2218;51.408;7.208;2022-11-02T01:13:04;99751.03;;;20.61;45.33
4410;BME280;2218;51.408;7.208;2022-11-02T01:15:31;99758.97;;;20.61;45.37
4410;BME280;2218;51.408;7.208;2022-11-02T01:17:59;99743.97;;;20.61;45.38
4410;BME280;2218;51.408;7.208;2022-11-02T01:20:26;99742.28;;;20.60;45.34
4410;BME280;2218;51.408;7.208;2022-11-02T01:22:53;99742.28;;;20.60;45.52
4410;BME280;2218;51.408;7.208;2022-11-02T01:25:20;99741.44;;;20.60;45.51
4410;BME280;2218;51.408;7.208;2022-11-02T01:27:47;99749.38;;;20.60;45.50
4410;BME280;2218;51.408;7.208;2022-11-02T01:30:14;99758.13;;;20.60;45.49
4410;BME280;2218;51.408;7.208;2022-11-02T01:32:42;99745.03;;;20.59;45.41
4410;BME280;2218;51.408;7.208;2022-11-02T01:35:11;99743.25;;;20.59;45.33
4410;BME280;2218;51.408;7.208;2022-11-02T01:37:38;99745.03;;;20.59;45.32
4410;BME280;2218;51.408;7.208;2022-11-02T01:40:06;99746.81;;;20.58;45.38
4410;BME280;2218;51.408;7.208;2022-11-02T01:42:33;99744.91;;;20.60;45.70
4410;BME280;2218;51.408;7.208;2022-11-02T01:45:00;99752.00;;;20.60;45.49
4410;BME280;2218;51.408;7.208;2022-11-02T01:47:32;99752.97;;;20.59;45.46
4410;BME280;2218;51.408;7.208;2022-11-02T01:50:07;99749.44;;;20.58;45.47
4410;BME280;2218;51.408;7.208;2022-11-02T01:52:38;99745.03;;;20.59;45.62
4410;BME280;2218;51.408;7.208;2022-11-02T01:55:12;99749.44;;;20.58;45.74
4410;BME280;2218;51.408;7.208;2022-11-02T01:57:46;99745.97;;;20.58;45.65
4410;BME280;2218;51.408;7.208;2022-11-02T02:00:15;99751.25;;;20.58;45.63
4410;BME280;2218;51.408;7.208;2022-11-02T02:02:53;99746.94;;;20.57;45.67
4410;BME280;2218;51.408;7.208;2022-11-02T02:05:23;99752.22;;;20.57;45.89
4410;BME280;2218;51.408;7.208;2022-11-02T02:07:52;99746.94;;;20.57;45.68
4410;BME280;2218;51.408;7.208;2022-11-02T02:10:19;99756.53;;;20.58;45.55
4410;BME280;2218;51.408;7.208;2022-11-02T02:12:48;99753.19;;;20.56;45.67
4410;BME280;2218;51.408;7.208;2022-11-02T02:15:20;99757.50;;;20.57;45.72
4410;BME280;2218;51.408;7.208;2022-11-02T02:17:56;99758.34;;;20.57;45.58
4410;BME280;2218;51.408;7.208;2022-11-02T02:20:53;99752.22;;;20.57;45.64
4410;BME280;2218;51.408;7.208;2022-11-02T02:24:06;99750.53;;;20.56;45.64
4410;BME280;2218;51.408;7.208;2022-11-02T02:27:12;99750.53;;;20.56;45.83
4410;BME280;2218;51.408;7.208;2022-11-02T02:29:51;99756.66;;;20.56;45.52
4410;BME280;2218;51.408;7.208;2022-11-02T02:32:29;99759.41;;;20.55;45.73
4410;BME280;2218;51.408;7.208;2022-11-02T02:35:10;99747.19;;;20.54;45.55
4410;BME280;2218;51.408;7.208;2022-11-02T02:37:45;99752.34;;;20.55;45.59
4410;BME280;2218;51.408;7.208;2022-11-02T02:40:18;99752.34;;;20.55;45.76
4410;BME280;2218;51.408;7.208;2022-11-02T02:42:51;99748.03;;;20.54;45.53
4410;BME280;2218;51.408;7.208;2022-11-02T02:45:28;99749.81;;;20.54;45.65
4410;BME280;2218;51.408;7.208;2022-11-02T02:48:03;99743.66;;;20.53;45.71
4410;BME280;2218;51.408;7.208;2022-11-02T02:50:40;99752.47;;;20.54;45.68
4410;BME280;2218;51.408;7.208;2022-11-02T02:53:11;99751.50;;;20.55;45.73
4410;BME280;2218;51.408;7.208;2022-11-02T02:55:45;99756.88;;;20.53;45.81
4410;BME280;2218;51.408;7.208;2022-11-02T02:58:19;99752.47;;;20.54;45.74
4410;BME280;2218;51.408;7.208;2022-11-02T03:00:49;99750.66;;;20.54;45.67
4410;BME280;2218;51.408;7.208;2022-11-02T03:03:24;99743.66;;;20.53;45.65
4410;BME280;2218;51.408;7.208;2022-11-02T03:06:04;99745.47;;;20.53;45.84
4410;BME280;2218;51.408;7.208;2022-11-02T03:08:40;99736.72;;;20.52;45.70
4410;BME280;2218;51.408;7.208;2022-11-02T03:11:13;99743.78;;;20.52;45.75
4410;BME280;2218;51.408;7.208;2022-11-02T03:14:05;99738.50;;;20.52;45.85
4410;BME280;2218;51.408;7.208;2022-11-02T03:16:52;99754.34;;;20.52;45.66
4410;BME280;2218;51.408;7.208;2022-11-02T03:19:35;99752.56;;;20.52;45.86
4410;BME280;2218;51.408;7.208;2022-11-02T03:22:11;99750.03;;;20.51;45.86
4410;BME280;2218;51.408;7.208;2022-11-02T03:24:49;99756.16;;;20.51;45.70
4410;BME280;2218;51.408;7.208;2022-11-02T03:27:24;99758.78;;;20.51;45.70
4410;BME280;2218;51.408;7.208;2022-11-02T03:30:02;99761.44;;;20.51;45.79
4410;BME280;2218;51.408;7.208;2022-11-02T03:32:39;99760.59;;;20.51;45.76
4410;BME280;2218;51.408;7.208;2022-11-02T03:35:14;99763.25;;;20.51;45.78
4410;BME280;2218;51.408;7.208;2022-11-02T03:37:49;99774.75;;;20.50;45.86
4410;BME280;2218;51.408;7.208;2022-11-02T03:40:23;99779.06;;;20.51;45.85
4410;BME280;2218;51.408;7.208;2022-11-02T03:42:53;99783.53;;;20.50;45.72
4410;BME280;2218;51.408;7.208;2022-11-02T03:45:26;99773.91;;;20.49;45.82
4410;BME280;2218;51.408;7.208;2022-11-02T03:48:04;99781.72;;;20.51;45.70
4410;BME280;2218;51.408;7.208;2022-11-02T03:50:36;99781.72;;;20.51;45.77
4410;BME280;2218;51.408;7.208;2022-11-02T03:53:08;99787.72;;;20.53;45.78
4410;BME280;2218;51.408;7.208;2022-11-02T03:55:42;99793.75;;;20.55;45.84
4410;BME280;2218;51.408;7.208;2022-11-02T03:58:11;99792.78;;;20.56;45.89
4410;BME280;2218;51.408;7.208;2022-11-02T04:00:47;99794.47;;;20.57;45.57
4410;BME280;2218;51.408;7.208;2022-11-02T04:03:19;99797.84;;;20.59;45.69
4410;BME280;2218;51.408;7.208;2022-11-02T04:05:48;99798.69;;;20.59;45.66
4410;BME280;2218;51.408;7.208;2022-11-02T04:08:28;99806.50;;;20.61;45.64
4410;BME280;2218;51.408;7.208;2022-11-02T04:11:01;99811.66;;;20.62;45.83
4410;BME280;2218;51.408;7.208;2022-11-02T04:13:46;99809.00;;;20.62;45.75
4410;BME280;2218;51.408;7.208;2022-11-02T04:16:35;99819.56;;;20.62;45.64
4410;BME280;2218;51.408;7.208;2022-11-02T04:19:09;99821.38;;;20.62;45.69
4410;BME280;2218;51.408;7.208;2022-11-02T04:22:00;99823.06;;;20.63;45.71
4410;BME280;2218;51.408;7.208;2022-11-02T04:24:47;99817.78;;;20.63;45.70
4410;BME280;2218;51.408;7.208;2022-11-02T04:27:33;99823.06;;;20.63;45.68
4410;BME280;2218;51.408;7.208;2022-11-02T04:30:02;99822.13;;;20.64;45.74
4410;BME280;2218;51.408;7.208;2022-11-02T04:32:36;99832.69;;;20.64;45.67
4410;BME280;2218;51.408;7.208;2022-11-02T04:35:23;99837.97;;;20.64;45.42
4410;BME280;2218;51.408;7.208;2022-11-02T04:37:51;99843.25;;;20.64;45.61
4410;BME280;2218;51.408;7.208;2022-11-02T04:40:38;99843.25;;;20.64;45.63
4410;BME280;2218;51.408;7.208;2022-11-02T04:43:05;99843.25;;;20.64;45.58
4410;BME280;2218;51.408;7.208;2022-11-02T04:45:33;99841.53;;;20.63;45.60
4410;BME280;2218;51.408;7.208;2022-11-02T04:48:03;99845.88;;;20.64;45.62
4410;BME280;2218;51.408;7.208;2022-11-02T04:50:33;99856.44;;;20.64;45.62
4410;BME280;2218;51.408;7.208;2022-11-02T04:53:03;99852.09;;;20.63;45.70
4410;BME280;2218;51.408;7.208;2022-11-02T04:55:32;99857.38;;;20.63;45.45
4410;BME280;2218;51.408;7.208;2022-11-02T04:57:59;99854.75;;;20.63;45.82
4410;BME280;2218;51.408;7.208;2022-11-02T05:00:26;99858.34;;;20.62;45.67
4410;BME280;2218;51.408;7.208;2022-11-02T05:02:53;99872.38;;;20.62;45.71
4410;BME280;2218;51.408;7.208;2022-11-02T05:05:22;99875.03;;;20.62;45.52
4410;BME280;2218;51.408;7.208;2022-11-02T05:07:53;99872.38;;;20.62;45.55
4410;BME280;2218;51.408;7.208;2022-11-02T05:10:20;99879.47;;;20.62;45.55
4410;BME280;2218;51.408;7.208;2022-11-02T05:12:48;99883.78;;;20.63;45.28
4410;BME280;2218;51.408;7.208;2022-11-02T05:15:21;99883.78;;;20.63;45.28
4410;BME280;2218;51.408;7.208;2022-11-02T05:17:48;99886.44;;;20.63;45.39
4410;BME280;2218;51.408;7.208;2022-11-02T05:20:17;99883.78;;;20.63;45.36
4410;BME280;2218;51.408;7.208;2022-11-02T05:22:44;99885.50;;;20.64;45.34
4410;BME280;2218;51.408;7.208;2022-11-02T05:25:14;99881.97;;;20.63;45.31
4410;BME280;2218;51.408;7.208;2022-11-02T05:27:41;99879.34;;;20.63;45.31
4410;BME280;2218;51.408;7.208;2022-11-02T05:30:10;99880.22;;;20.64;45.04
4410;BME280;2218;51.408;7.208;2022-11-02T05:32:37;99888.97;;;20.64;45.14
4410;BME280;2218;51.408;7.208;2022-11-02T05:35:05;99890.78;;;20.64;45.19
4410;BME280;2218;51.408;7.208;2022-11-02T05:37:32;99899.41;;;20.66;45.13
4410;BME280;2218;51.408;7.208;2022-11-02T05:40:01;99896.91;;;20.64;45.22
4410;BME280;2218;51.408;7.208;2022-11-02T05:42:29;99898.59;;;20.65;45.01
4410;BME280;2218;51.408;7.208;2022-11-02T05:44:57;99907.34;;;20.66;45.04
4410;BME280;2218;51.408;7.208;2022-11-02T05:47:23;99905.53;;;20.67;45.24
4410;BME280;2218;51.408;7.208;2022-11-02T05:49:50;99908.31;;;20.65;45.10
4410;BME280;2218;51.408;7.208;2022-11-02T05:52:17;99907.34;;;20.66;44.94
4410;BME280;2218;51.408;7.208;2022-11-02T05:54:44;99917.91;;;20.66;45.01
4410;BME280;2218;51.408;7.208;2022-11-02T05:57:11;99915.25;;;20.66;45.14
4410;BME280;2218;51.408;7.208;2022-11-02T05:59:39;99912.63;;;20.66;45.03
4410;BME280;2218;51.408;7.208;2022-11-02T06:02:06;99917.91;;;20.66;45.10
4410;BME280;2218;51.408;7.208;2022-11-02T06:04:33;99915.25;;;20.66;44.86
4410;BME280;2218;51.408;7.208;2022-11-02T06:07:00;99919.59;;;20.67;44.98
4410;BME280;2218;51.408;7.208;2022-11-02T06:09:27;99930.16;;;20.67;45.02
4410;BME280;2218;51.408;7.208;2022-11-02T06:11:55;99932.78;;;20.67;44.93
4410;BME280;2218;51.408;7.208;2022-11-02T06:14:22;99938.06;;;20.67;45.08
4410;BME280;2218;51.408;7.208;2022-11-02T06:16:50;99943.34;;;20.67;44.85
4410;BME280;2218;51.408;7.208;2022-11-02T06:19:17;99938.06;;;20.67;44.97
4410;BME280;2218;51.408;7.208;2022-11-02T06:21:44;99944.19;;;20.68;44.94
4410;BME280;2218;51.408;7.208;2022-11-02T06:24:10;99947.69;;;20.68;44.88
4410;BME280;2218;51.408;7.208;2022-11-02T06:26:37;99954.75;;;20.68;44.70
4410;BME280;2218;51.408;7.208;2022-11-02T06:29:04;99950.31;;;20.68;44.95
4410;BME280;2218;51.408;7.208;2022-11-02T06:31:36;99949.47;;;20.68;44.79
4410;BME280;2218;51.408;7.208;2022-11-02T06:34:19;99961.75;;;20.69;44.99
4410;BME280;2218;51.408;7.208;2022-11-02T06:37:07;99960.88;;;20.68;45.49
4410;BME280;2218;51.408;7.208;2022-11-02T06:39:39;99966.06;;;20.70;44.95
4410;BME280;2218;51.408;7.208;2022-11-02T06:42:06;99972.31;;;20.69;44.90
4410;BME280;2218;51.408;7.208;2022-11-02T06:44:33;99981.09;;;20.69;44.77
4410;BME280;2218;51.408;7.208;2022-11-02T06:46:59;99986.38;;;20.69;44.59
4410;BME280;2218;51.408;7.208;2022-11-02T06:49:28;99978.44;;;20.69;44.91
4410;BME280;2218;51.408;7.208;2022-11-02T06:51:54;99994.28;;;20.69;44.83
4410;BME280;2218;51.408;7.208;2022-11-02T06:54:21;99998.59;;;20.70;44.86
4410;BME280;2218;51.408;7.208;2022-11-02T06:56:48;100001.13;;;20.72;44.70
4410;BME280;2218;51.408;7.208;2022-11-02T06:59:15;100014.34;;;20.72;44.76
4410;BME280;2218;51.408;7.208;2022-11-02T07:01:42;100006.53;;;20.70;44.91
4410;BME280;2218;51.408;7.208;2022-11-02T07:04:09;100002.94;;;20.71;44.69
4410;BME280;2218;51.408;7.208;2022-11-02T07:06:37;100013.50;;;20.71;44.90
4410;BME280;2218;51.408;7.208;2022-11-02T07:09:04;100016.13;;;20.71;44.94
4410;BME280;2218;51.408;7.208;2022-11-02T07:11:31;100021.41;;;20.71;45.09
4410;BME280;2218;51.408;7.208;2022-11-02T07:13:58;100034.63;;;20.71;44.94
4410;BME280;2218;51.408;7.208;2022-11-02T07:16:25;100034.63;;;20.71;45.12
4410;BME280;2218;51.408;7.208;2022-11-02T07:18:52;100046.88;;;20.72;45.60
4410;BME280;2218;51.408;7.208;2022-11-02T07:21:18;100051.31;;;20.72;45.39
4410;BME280;2218;51.408;7.208;2022-11-02T07:23:47;100055.75;;;20.71;45.57
4410;BME280;2218;51.408;7.208;2022-11-02T07:26:13;100052.16;;;20.72;45.23
4410;BME280;2218;51.408;7.208;2022-11-02T07:28:40;100068.00;;;20.72;45.31
4410;BME280;2218;51.408;7.208;2022-11-02T07:31:07;100063.47;;;20.74;45.22
4410;BME280;2218;51.408;7.208;2022-11-02T07:33:34;100075.16;;;20.83;45.38
4410;BME280;2218;51.408;7.208;2022-11-02T07:36:02;100074.13;;;20.85;44.85
4410;BME280;2218;51.408;7.208;2022-11-02T07:38:31;100075.59;;;20.89;44.76
4410;BME280;2218;51.408;7.208;2022-11-02T07:40:59;100062.28;;;20.91;44.67
4410;BME280;2218;51.408;7.208;2022-11-02T07:43:27;100079.94;;;20.90;44.71
4410;BME280;2218;51.408;7.208;2022-11-02T07:46:01;100092.06;;;20.93;44.70
4410;BME280;2218;51.408;7.208;2022-11-02T07:48:28;100094.63;;;20.95;44.44
4410;BME280;2218;51.408;7.208;2022-11-02T07:50:56;100098.00;;;20.97;44.49
4410;BME280;2218;51.408;7.208;2022-11-02T07:53:27;100087.22;;;21.00;44.77
4410;BME280;2218;51.408;7.208;2022-11-02T07:55:54;100104.75;;;21.01;45.00
4410;BME280;2218;51.408;7.208;2022-11-02T07:58:22;100110.75;;;21.03;44.85
4410;BME280;2218;51.408;7.208;2022-11-02T08:00:49;100120.59;;;21.01;45.12
4410;BME280;2218;51.408;7.208;2022-11-02T08:03:16;100124.22;;;21.00;45.22
4410;BME280;2218;51.408;7.208;2022-11-02T08:05:43;100127.81;;;20.99;44.95
4410;BME280;2218;51.408;7.208;2022-11-02T08:08:12;100133.09;;;20.99;45.22
4410;BME280;2218;51.408;7.208;2022-11-02T08:10:40;100131.28;;;20.99;45.18
4410;BME280;2218;51.408;7.208;2022-11-02T08:13:10;100150.50;;;21.01;45.28
4410;BME280;2218;51.408;7.208;2022-11-02T08:15:39;100143.44;;;21.02;45.46
4410;BME280;2218;51.408;7.208;2022-11-02T08:18:11;100147.88;;;21.01;45.29
4410;BME280;2218;51.408;7.208;2022-11-02T08:20:38;100148.72;;;21.02;45.16
4410;BME280;2218;51.408;7.208;2022-11-02T08:23:05;100140.78;;;21.02;45.34
4410;BME280;2218;51.408;7.208;2022-11-02T08:25:33;100151.25;;;21.03;45.23
4410;BME280;2218;51.408;7.208;2022-11-02T08:28:01;100148.72;;;21.02;45.42
4410;BME280;2218;51.408;7.208;2022-11-02T08:30:30;100145.03;;;21.04;45.25
4410;BME280;2218;51.408;7.208;2022-11-02T08:33:03;100153.81;;;21.05;45.38
4410;BME280;2218;51.408;7.208;2022-11-02T08:35:31;100159.09;;;21.05;45.46
4410;BME280;2218;51.408;7.208;2022-11-02T08:37:58;100159.81;;;21.07;45.61
4410;BME280;2218;51.408;7.208;2022-11-02T08:40:26;100163.28;;;21.07;45.46
4410;BME280;2218;51.408;7.208;2022-11-02T08:42:57;100159.81;;;21.07;45.40
4410;BME280;2218;51.408;7.208;2022-11-02T08:45:24;100173.88;;;21.07;45.46
4410;BME280;2218;51.408;7.208;2022-11-02T08:47:51;100176.44;;;21.09;45.58
4410;BME280;2218;51.408;7.208;2022-11-02T08:50:20;100171.13;;;21.09;45.29
4410;BME280;2218;51.408;7.208;2022-11-02T08:52:48;100188.75;;;21.08;45.62
4410;BME280;2218;51.408;7.208;2022-11-02T08:55:15;100169.41;;;21.08;45.76
4410;BME280;2218;51.408;7.208;2022-11-02T08:57:46;100192.28;;;21.09;45.46
4410;BME280;2218;51.408;7.208;2022-11-02T09:00:14;100195.75;;;21.09;45.61
4410;BME280;2218;51.408;7.208;2022-11-02T09:02:42;100198.19;;;21.12;45.41
4410;BME280;2218;51.408;7.208;2022-11-02T09:05:10;100203.25;;;21.15;45.10
4410;BME280;2218;51.408;7.208;2022-11-02T09:07:38;100208.44;;;21.17;44.90
4410;BME280;2218;51.408;7.208;2022-11-02T09:10:05;100208.44;;;21.17;45.04
4410;BME280;2218;51.408;7.208;2022-11-02T09:12:33;100203.16;;;21.17;44.55
4410;BME280;2218;51.408;7.208;2022-11-02T09:15:00;100214.47;;;21.19;44.73
4410;BME280;2218;51.408;7.208;2022-11-02T09:17:28;100216.16;;;21.20;44.47
4410;BME280;2218;51.408;7.208;2022-11-02T09:19:55;100216.16;;;21.20;44.62
4410;BME280;2218;51.408;7.208;2022-11-02T09:22:22;100221.44;;;21.20;44.38
4410;BME280;2218;51.408;7.208;2022-11-02T09:24:50;100226.72;;;21.20;44.23
4410;BME280;2218;51.408;7.208;2022-11-02T09:27:17;100234.53;;;21.22;43.90
4410;BME280;2218;51.408;7.208;2022-11-02T09:29:44;100227.47;;;21.22;43.87
4410;BME280;2218;51.408;7.208;2022-11-02T09:32:11;100227.38;;;21.24;43.43
4410;BME280;2218;51.408;7.208;2022-11-02T09:34:37;100219.31;;;21.25;43.59
4410;BME280;2218;51.408;7.208;2022-11-02T09:37:04;100240.47;;;21.25;43.49
4410;BME280;2218;51.408;7.208;2022-11-02T09:39:31;100235.19;;;21.25;43.34
4410;BME280;2218;51.408;7.208;2022-11-02T09:42:12;100232.44;;;21.27;42.95
4410;BME280;2218;51.408;7.208;2022-11-02T09:44:48;100235.19;;;21.25;43.11
4410;BME280;2218;51.408;7.208;2022-11-02T09:47:17;100234.22;;;21.26;42.77
4410;BME280;2218;51.408;7.208;2022-11-02T09:49:46;100230.09;;;21.22;42.51
4410;BME280;2218;51.408;7.208;2022-11-02T09:52:23;100230.09;;;21.22;42.22
4410;BME280;2218;51.408;7.208;2022-11-02T09:54:53;100227.56;;;21.21;41.62
4410;BME280;2218;51.408;7.208;2022-11-02T09:57:28;100223.97;;;21.22;41.53
4410;BME280;2218;51.408;7.208;2022-11-02T09:59:56;100226.63;;;21.22;41.32
4410;BME280;2218;51.408;7.208;2022-11-02T10:02:46;100235.19;;;21.25;40.98
4410;BME280;2218;51.408;7.208;2022-11-02T10:05:31;100243.84;;;21.27;41.29
4410;BME280;2218;51.408;7.208;2022-11-02T10:08:26;100230.63;;;21.27;41.64
4410;BME280;2218;51.408;7.208;2022-11-02T10:11:16;100226.19;;;21.28;40.88
4410;BME280;2218;51.408;7.208;2022-11-02T10:13:52;100231.59;;;21.26;41.38
4410;BME280;2218;51.408;7.208;2022-11-02T10:16:27;100227.16;;;21.27;40.96
4410;BME280;2218;51.408;7.208;2022-11-02T10:18:57;100233.28;;;21.27;40.95
4410;BME280;2218;51.408;7.208;2022-11-02T10:21:31;100240.25;;;21.28;40.86
4410;BME280;2218;51.408;7.208;2022-11-02T10:24:14;100243.69;;;21.30;40.95
4410;BME280;2218;51.408;7.208;2022-11-02T10:26:42;100251.16;;;21.24;40.62
4410;BME280;2218;51.408;7.208;2022-11-02T10:29:17;100255.28;;;21.15;40.72
4410;BME280;2218;51.408;7.208;2022-11-02T10:31:45;100254.44;;;21.14;40.89
4410;BME280;2218;51.408;7.208;2022-11-02T10:34:23;100244.28;;;21.21;40.67
4410;BME280;2218;51.408;7.208;2022-11-02T10:37:08;100253.47;;;21.28;40.51
4410;BME280;2218;51.408;7.208;2022-11-02T10:39:54;100248.53;;;21.36;40.75
4410;BME280;2218;51.408;7.208;2022-11-02T10:43:02;100253.81;;;21.36;40.58
4410;BME280;2218;51.408;7.208;2022-11-02T10:45:51;100256.47;;;21.36;41.09
4410;BME280;2218;51.408;7.208;2022-11-02T10:48:33;100257.22;;;21.38;40.43
4410;BME280;2218;51.408;7.208;2022-11-02T10:51:08;100254.34;;;21.41;40.86
4410;BME280;2218;51.408;7.208;2022-11-02T10:53:39;100262.16;;;21.43;41.05
4410;BME280;2218;51.408;7.208;2022-11-02T10:56:15;100264.81;;;21.43;40.66
4410;BME280;2218;51.408;7.208;2022-11-02T10:58:49;100266.41;;;21.46;40.62
4410;BME280;2218;51.408;7.208;2022-11-02T11:01:18;100270.75;;;21.47;41.16
4410;BME280;2218;51.408;7.208;2022-11-02T11:03:54;100273.25;;;21.48;40.96
4410;BME280;2218;51.408;7.208;2022-11-02T11:06:22;100268.84;;;21.49;41.08
4410;BME280;2218;51.408;7.208;2022-11-02T11:08:50;100274.13;;;21.49;41.29
4410;BME280;2218;51.408;7.208;2022-11-02T11:11:22;100273.19;;;21.50;41.42
4410;BME280;2218;51.408;7.208;2022-11-02T11:13:57;100282.81;;;21.51;41.20
4410;BME280;2218;51.408;7.208;2022-11-02T11:16:39;100268.63;;;21.52;41.21
4410;BME280;2218;51.408;7.208;2022-11-02T11:19:22;100273.06;;;21.51;41.71
4410;BME280;2218;51.408;7.208;2022-11-02T11:21:50;100268.63;;;21.52;41.44
4410;BME280;2218;51.408;7.208;2022-11-02T11:24:29;100272.94;;;21.53;41.82
4410;BME280;2218;51.408;7.208;2022-11-02T11:27:02;100273.06;;;21.51;41.84
4410;BME280;2218;51.408;7.208;2022-11-02T11:29:32;100292.22;;;21.55;42.03
4410;BME280;2218;51.408;7.208;2022-11-02T11:32:01;100280.69;;;21.56;42.19
4410;BME280;2218;51.408;7.208;2022-11-02T11:34:34;100268.41;;;21.55;42.42
4410;BME280;2218;51.408;7.208;2022-11-02T11:37:06;100285.13;;;21.55;42.37
4410;BME280;2218;51.408;7.208;2022-11-02T11:39:36;100268.41;;;21.55;42.62
4410;BME280;2218;51.408;7.208;2022-11-02T11:42:14;100280.78;;;21.54;42.36
4410;BME280;2218;51.408;7.208;2022-11-02T11:44:46;100285.13;;;21.55;42.35
4410;BME280;2218;51.408;7.208;2022-11-02T11:47:25;100284.16;;;21.56;42.75
4410;BME280;2218;51.408;7.208;2022-11-02T11:49:56;100276.34;;;21.55;42.69
4410;BME280;2218;51.408;7.208;2022-11-02T11:52:28;100284.28;;;21.55;42.39
4410;BME280;2218;51.408;7.208;2022-11-02T11:54:57;100279.84;;;21.55;42.26
4410;BME280;2218;51.408;7.208;2022-11-02T11:57:28;100281.63;;;21.55;42.70
4410;BME280;2218;51.408;7.208;2022-11-02T11:59:57;100291.25;;;21.56;42.75
4410;BME280;2218;51.408;7.208;2022-11-02T12:02:30;100283.44;;;21.54;42.92
4410;BME280;2218;51.408;7.208;2022-11-02T12:05:01;100287.88;;;21.54;42.77
4410;BME280;2218;51.408;7.208;2022-11-02T12:07:55;100285.31;;;21.52;43.08
4410;BME280;2218;51.408;7.208;2022-11-02T12:10:45;100280.03;;;21.52;42.93
4410;BME280;2218;51.408;7.208;2022-11-02T12:13:29;100284.47;;;21.52;43.11
4410;BME280;2218;51.408;7.208;2022-11-02T12:16:15;100272.22;;;21.51;42.79
4410;BME280;2218;51.408;7.208;2022-11-02T12:19:15;100285.44;;;21.51;43.18
4410;BME280;2218;51.408;7.208;2022-11-02T12:22:00;100274.88;;;21.51;43.17
4410;BME280;2218;51.408;7.208;2022-11-02T12:25:10;100271.25;;;21.52;42.81
4410;BME280;2218;51.408;7.208;2022-11-02T12:27:51;100265.25;;;21.50;43.35
4410;BME280;2218;51.408;7.208;2022-11-02T12:30:24;100261.66;;;21.51;42.80
4410;BME280;2218;51.408;7.208;2022-11-02T12:33:14;100262.38;;;21.53;43.07
4410;BME280;2218;51.408;7.208;2022-11-02T12:36:00;100259.72;;;21.53;42.81
4410;BME280;2218;51.408;7.208;2022-11-02T12:38:50;100263.97;;;21.55;42.30
4410;BME280;2218;51.408;7.208;2022-11-02T12:41:46;100262.06;;;21.57;42.81
4410;BME280;2218;51.408;7.208;2022-11-02T12:44:46;100266.41;;;21.58;42.73
4410;BME280;2218;51.408;7.208;2022-11-02T12:47:32;100254.03;;;21.59;42.81
4410;BME280;2218;51.408;7.208;2022-11-02T12:50:13;100256.69;;;21.59;42.82
4410;BME280;2218;51.408;7.208;2022-11-02T12:53:02;100261.97;;;21.59;43.10
4410;BME280;2218;51.408;7.208;2022-11-02T12:55:39;100256.44;;;21.62;42.98
4410;BME280;2218;51.408;7.208;2022-11-02T12:58:16;100264.16;;;21.65;43.19
4410;BME280;2218;51.408;7.208;2022-11-02T13:00:51;100255.28;;;21.66;43.50
4410;BME280;2218;51.408;7.208;2022-11-02T13:03:35;100256.97;;;21.67;43.32
4410;BME280;2218;51.408;7.208;2022-11-02T13:06:12;100252.50;;;21.67;43.44
4410;BME280;2218;51.408;7.208;2022-11-02T13:08:48;100256.97;;;21.67;43.50
4410;BME280;2218;51.408;7.208;2022-11-02T13:11:22;100258.88;;;21.65;43.63
4410;BME280;2218;51.408;7.208;2022-11-02T13:13:54;100267.78;;;21.64;43.76
4410;BME280;2218;51.408;7.208;2022-11-02T13:16:32;100265.22;;;21.62;43.76
4410;BME280;2218;51.408;7.208;2022-11-02T13:19:03;100257.19;;;21.64;43.28
4410;BME280;2218;51.408;7.208;2022-11-02T13:21:36;100256.44;;;21.62;42.93
4410;BME280;2218;51.408;7.208;2022-11-02T13:24:15;100262.56;;;21.62;42.86
4410;BME280;2218;51.408;7.208;2022-11-02T13:26:48;100259.09;;;21.62;43.10
4410;BME280;2218;51.408;7.208;2022-11-02T13:29:23;100260.88;;;21.61;42.66
4410;BME280;2218;51.408;7.208;2022-11-02T13:32:01;100253.78;;;21.62;41.91
4410;BME280;2218;51.408;7.208;2022-11-02T13:34:35;100246.09;;;21.59;41.82
4410;BME280;2218;51.408;7.208;2022-11-02T13:37:08;100237.91;;;21.62;41.14
4410;BME280;2218;51.408;7.208;2022-11-02T13:39:43;100247.03;;;21.58;41.26
4410;BME280;2218;51.408;7.208;2022-11-02T13:42:42;100229.78;;;21.52;40.21
4410;BME280;2218;51.408;7.208;2022-11-02T13:45:37;100243.13;;;21.51;40.34
4410;BME280;2218;51.408;7.208;2022-11-02T13:48:25;100220.59;;;21.45;39.36